Time;durP1;ratioP1;P1;durP2;ratioP2;P2;SDS_P1;SDS_P2;PMS_P1;PMS_P2;Temp;Humidity;BMP_temperature;BMP_pressure;BME280_temperature;BME280_humidity;BME280_pressure;Samples;Min_cycle;Max_cycle;Signal;HPM_P1;HPM_P2
2023/02/22 00:00:58;;;;;;;4.95;1.80;;;8.60;99.90;;;;;;4678656;30;20073;-79
2023/02/22 00:03:33;;;;;;;2.85;1.45;;;8.60;99.90;;;;;;4689996;30;20078;-79
2023/02/22 00:06:03;;;;;;;4.90;2.40;;;8.50;99.90;;;;;;4680653;30;20060;-79
2023/02/22 00:08:36;;;;;;;7.35;2.90;;;8.50;99.90;;;;;;4691760;30;20741;-79
2023/02/22 00:11:08;;;;;;;4.57;2.03;;;8.40;99.90;;;;;;4685314;30;20059;-79
2023/02/22 00:13:37;;;;;;;6.25;2.33;;;8.50;99.90;;;;;;4675451;30;22271;-79
2023/02/22 00:16:05;;;;;;;5.18;2.75;;;8.40;99.90;;;;;;4687929;30;22508;-79
2023/02/22 00:18:32;;;;;;;5.05;2.28;;;8.40;99.90;;;;;;4685123;30;21055;-79
2023/02/22 00:20:59;;;;;;;6.20;2.53;;;8.30;99.90;;;;;;4679307;30;20147;-79
2023/02/22 00:23:29;;;;;;;14.05;5.68;;;8.30;99.90;;;;;;4685148;30;20064;-79
2023/02/22 00:25:58;;;;;;;10.68;4.18;;;8.30;99.90;;;;;;4677940;30;20900;-79
2023/02/22 00:28:26;;;;;;;6.78;3.03;;;8.20;99.90;;;;;;4688131;30;20065;-78
2023/02/22 00:30:53;;;;;;;6.95;2.90;;;8.20;99.90;;;;;;4697843;30;22498;-79
2023/02/22 00:33:21;;;;;;;4.70;2.22;;;8.20;99.90;;;;;;4686847;30;20052;-79
2023/02/22 00:35:49;;;;;;;7.07;2.80;;;8.20;99.90;;;;;;4689284;30;20210;-79
2023/02/22 00:38:18;;;;;;;4.53;2.40;;;8.10;99.90;;;;;;4707524;30;20065;-80
2023/02/22 00:40:45;;;;;;;6.53;2.13;;;8.10;99.90;;;;;;4691343;30;20071;-79
2023/02/22 00:43:13;;;;;;;4.72;2.15;;;8.00;99.90;;;;;;4678202;30;20148;-79
2023/02/22 00:45:41;;;;;;;4.70;2.50;;;8.00;99.90;;;;;;4718164;30;20060;-79
2023/02/22 00:48:09;;;;;;;5.63;2.53;;;8.00;99.90;;;;;;4692819;30;20109;-79
2023/02/22 00:50:36;;;;;;;8.10;2.80;;;7.90;99.90;;;;;;4683973;30;20065;-79
2023/02/22 00:53:06;;;;;;;6.25;2.70;;;7.80;99.90;;;;;;4680069;30;20064;-79
2023/02/22 00:55:35;;;;;;;8.80;4.05;;;7.80;99.90;;;;;;4667630;30;20064;-79
2023/02/22 00:58:04;;;;;;;7.30;3.55;;;7.70;99.90;;;;;;4693148;30;20060;-79
2023/02/22 01:00:40;;;;;;;5.35;2.78;;;7.70;99.90;;;;;;4695781;30;20061;-79
2023/02/22 01:03:10;;;;;;;7.38;3.03;;;7.70;99.90;;;;;;4672686;30;20079;-79
2023/02/22 01:05:38;;;;;;;8.38;2.85;;;7.70;99.90;;;;;;4693867;30;20696;-79
2023/02/22 01:08:07;;;;;;;8.05;2.90;;;7.60;99.90;;;;;;4712983;30;20053;-79
2023/02/22 01:10:36;;;;;;;7.07;3.30;;;7.60;99.90;;;;;;4684064;30;20057;-79
2023/02/22 01:13:07;;;;;;;8.15;3.53;;;7.60;99.90;;;;;;4692900;30;20072;-79
2023/02/22 01:15:38;;;;;;;7.50;3.85;;;7.50;99.90;;;;;;4695246;30;20068;-79
2023/02/22 01:18:06;;;;;;;6.10;3.00;;;7.50;99.90;;;;;;4693287;30;20147;-79
2023/02/22 01:20:33;;;;;;;5.82;2.85;;;7.40;99.90;;;;;;4693519;30;20053;-79
2023/02/22 01:23:02;;;;;;;7.43;3.35;;;7.40;99.90;;;;;;4692361;30;20075;-79
2023/02/22 01:25:30;;;;;;;6.63;3.00;;;7.30;99.90;;;;;;4679296;30;20064;-79
2023/02/22 01:27:59;;;;;;;7.85;3.17;;;7.30;99.90;;;;;;4700208;30;20053;-79
2023/02/22 01:30:29;;;;;;;6.20;3.20;;;7.30;99.90;;;;;;4694057;30;20115;-80
2023/02/22 01:32:57;;;;;;;7.47;3.08;;;7.30;99.90;;;;;;4691973;30;20061;-79
2023/02/22 01:35:30;;;;;;;9.73;3.13;;;7.30;99.90;;;;;;4693379;30;20056;-79
2023/02/22 01:37:57;;;;;;;5.97;3.00;;;7.30;99.90;;;;;;4706479;30;20060;-79
2023/02/22 01:40:29;;;;;;;7.20;3.03;;;7.30;99.90;;;;;;4683090;30;20064;-80
2023/02/22 01:42:59;;;;;;;7.38;3.22;;;7.30;99.90;;;;;;4691878;30;22571;-79
2023/02/22 01:45:29;;;;;;;7.97;3.33;;;7.30;99.90;;;;;;4675677;30;20426;-79
2023/02/22 01:48:04;;;;;;;7.32;3.50;;;7.20;99.90;;;;;;4678575;30;20083;-79
2023/02/22 01:50:38;;;;;;;8.00;3.38;;;7.30;99.90;;;;;;4683223;30;20463;-79
2023/02/22 01:53:08;;;;;;;7.80;3.22;;;7.30;99.90;;;;;;4691921;30;20163;-79
2023/02/22 01:55:38;;;;;;;7.38;3.28;;;7.30;99.90;;;;;;4684095;30;20064;-79
2023/02/22 01:58:05;;;;;;;6.57;2.92;;;7.30;99.90;;;;;;4693964;30;20070;-79
2023/02/22 02:00:33;;;;;;;7.40;3.22;;;7.30;99.90;;;;;;4690755;30;20057;-79
2023/02/22 02:03:10;;;;;;;10.00;4.50;;;7.30;99.90;;;;;;4673936;30;20061;-79
2023/02/22 02:05:38;;;;;;;8.20;3.13;;;7.30;99.90;;;;;;4690966;30;20058;-79
2023/02/22 02:08:37;;;;;;;6.43;3.17;;;7.30;99.90;;;;;;4671239;30;20850;-79
2023/02/22 02:11:07;;;;;;;9.65;3.70;;;7.30;99.90;;;;;;4686328;30;20433;-79
2023/02/22 02:13:35;;;;;;;8.70;3.13;;;7.30;99.90;;;;;;4693336;30;20814;-79
2023/02/22 02:16:03;;;;;;;8.90;3.72;;;7.30;99.90;;;;;;4693532;30;20060;-79
2023/02/22 02:18:31;;;;;;;9.07;3.65;;;7.30;99.90;;;;;;4691322;30;20707;-79
2023/02/22 02:21:26;;;;;;;7.60;3.53;;;7.30;99.90;;;;;;4692474;30;20143;-79
2023/02/22 02:24:10;;;;;;;7.38;3.42;;;7.30;99.90;;;;;;4692059;30;20068;-79
2023/02/22 02:26:51;;;;;;;10.45;3.72;;;7.30;99.90;;;;;;4693600;30;20089;-80
2023/02/22 02:29:54;;;;;;;9.05;4.70;;;7.30;99.90;;;;;;4682960;30;20065;-80
2023/02/22 02:32:37;;;;;;;13.47;4.10;;;7.30;99.90;;;;;;4692188;30;20092;-79
2023/02/22 02:35:12;;;;;;;11.00;4.70;;;7.30;99.90;;;;;;4712525;30;20056;-79
2023/02/22 02:38:03;;;;;;;10.02;4.68;;;7.30;99.90;;;;;;4691526;30;20048;-79
2023/02/22 02:40:48;;;;;;;13.20;5.35;;;7.40;99.90;;;;;;4691665;30;20060;-79
2023/02/22 02:43:51;;;;;;;20.65;8.35;;;7.40;99.90;;;;;;4708248;30;20135;-80
2023/02/22 02:46:28;;;;;;;14.50;6.10;;;7.40;99.90;;;;;;4680572;30;20061;-78
2023/02/22 02:48:59;;;;;;;9.70;4.40;;;7.40;99.90;;;;;;4673878;30;20826;-79
2023/02/22 02:51:32;;;;;;;11.10;5.10;;;7.40;99.90;;;;;;4691724;30;20417;-79
2023/02/22 02:54:02;;;;;;;8.70;3.95;;;7.40;99.90;;;;;;4708872;30;20048;-79
2023/02/22 02:56:29;;;;;;;7.78;3.53;;;7.40;99.90;;;;;;4686749;30;20065;-79
2023/02/22 02:58:57;;;;;;;7.03;3.05;;;7.40;99.90;;;;;;4691756;30;20425;-79
2023/02/22 03:01:32;;;;;;;13.07;4.55;;;7.40;99.90;;;;;;4691009;30;20067;-79
2023/02/22 03:04:26;;;;;;;11.70;4.22;;;7.40;99.90;;;;;;4677597;30;20071;-79
2023/02/22 03:07:23;;;;;;;8.50;3.80;;;7.40;99.90;;;;;;4684481;30;20060;-79
2023/02/22 03:10:23;;;;;;;12.13;4.90;;;7.40;99.90;;;;;;4662962;30;20209;-80
2023/02/22 03:13:00;;;;;;;8.20;3.55;;;7.40;99.90;;;;;;4677417;30;20205;-79
2023/02/22 03:16:01;;;;;;;8.35;4.05;;;7.40;99.90;;;;;;4687933;30;20057;-79
2023/02/22 03:18:47;;;;;;;6.55;3.17;;;7.30;99.90;;;;;;4693980;30;20064;-79
2023/02/22 03:21:42;;;;;;;7.93;3.65;;;7.30;99.90;;;;;;4679150;30;20056;-79
2023/02/22 03:24:18;;;;;;;7.18;3.42;;;7.30;99.90;;;;;;4673160;30;20702;-79
2023/02/22 03:26:58;;;;;;;7.75;3.70;;;7.30;99.90;;;;;;4686554;30;20053;-79
2023/02/22 03:29:29;;;;;;;8.32;3.30;;;7.20;99.90;;;;;;4664442;30;20088;-79
2023/02/22 03:32:00;;;;;;;8.05;3.63;;;7.30;99.90;;;;;;4691171;30;20044;-79
2023/02/22 03:34:42;;;;;;;7.60;3.15;;;7.30;99.90;;;;;;4671321;30;20437;-79
2023/02/22 03:37:18;;;;;;;7.35;3.33;;;7.30;99.90;;;;;;4646131;30;20065;-79
2023/02/22 03:39:48;;;;;;;10.90;5.28;;;7.30;99.90;;;;;;4662577;30;20876;-79
2023/02/22 03:42:27;;;;;;;10.40;4.15;;;7.30;99.90;;;;;;4672082;30;20198;-79
2023/02/22 03:44:58;;;;;;;8.70;4.07;;;7.30;99.90;;;;;;4668556;30;22434;-79
2023/02/22 03:47:41;;;;;;;9.20;4.65;;;7.30;99.90;;;;;;4671516;30;20941;-79
2023/02/22 03:50:17;;;;;;;10.43;3.83;;;7.30;99.90;;;;;;4676641;30;20064;-79
2023/02/22 03:52:46;;;;;;;7.72;3.55;;;7.30;99.90;;;;;;4669938;30;20520;-79
2023/02/22 03:55:22;;;;;;;9.27;3.65;;;7.30;99.90;;;;;;4661146;30;20190;-79
2023/02/22 03:57:56;;;;;;;9.13;4.05;;;7.30;99.90;;;;;;4671770;30;20199;-79
2023/02/22 04:00:29;;;;;;;7.97;3.85;;;7.30;99.90;;;;;;4673568;30;20060;-79
2023/02/22 04:02:57;;;;;;;9.98;3.90;;;7.30;99.90;;;;;;4671921;30;22557;-78
2023/02/22 04:05:25;;;;;;;7.30;3.13;;;7.30;99.90;;;;;;4673811;30;20095;-79
2023/02/22 04:07:53;;;;;;;6.30;3.35;;;7.40;99.90;;;;;;4688072;30;20060;-79
2023/02/22 04:10:21;;;;;;;8.02;4.18;;;7.40;99.90;;;;;;4677964;30;22662;-79
2023/02/22 04:12:49;;;;;;;6.90;3.10;;;7.40;99.90;;;;;;4671555;30;20578;-79
2023/02/22 04:15:21;;;;;;;12.88;6.20;;;7.40;99.90;;;;;;4688235;30;20052;-79
2023/02/22 04:17:51;;;;;;;9.73;4.90;;;7.40;99.90;;;;;;4680036;30;20060;-79
2023/02/22 04:20:19;;;;;;;10.98;5.85;;;7.40;99.90;;;;;;4663122;30;20161;-79
2023/02/22 04:22:52;;;;;;;20.13;10.57;;;7.40;99.90;;;;;;4670242;30;20063;-79
2023/02/22 04:25:20;;;;;;;83.47;35.00;;;7.40;99.90;;;;;;4677097;30;20068;-78
2023/02/22 04:27:48;;;;;;;64.32;31.17;;;7.40;99.90;;;;;;4702741;30;22354;-78
2023/02/22 04:30:20;;;;;;;19.58;8.32;;;7.40;99.90;;;;;;4687233;30;20786;-78
2023/02/22 04:32:47;;;;;;;21.33;11.85;;;7.40;99.90;;;;;;4680946;30;20506;-78
2023/02/22 04:35:19;;;;;;;26.50;14.82;;;7.40;99.90;;;;;;4675397;30;20064;-79
2023/02/22 04:37:46;;;;;;;38.67;23.13;;;7.40;99.90;;;;;;4704146;30;20104;-79
2023/02/22 04:40:15;;;;;;;23.55;13.88;;;7.40;99.90;;;;;;4684911;30;20064;-78
2023/02/22 04:42:43;;;;;;;12.00;7.10;;;7.30;99.90;;;;;;4695259;30;20063;-79
2023/02/22 04:45:10;;;;;;;17.55;9.30;;;7.30;99.90;;;;;;4681378;30;20061;-78
2023/02/22 04:47:38;;;;;;;13.70;8.43;;;7.30;99.90;;;;;;4684569;30;22272;-78
2023/02/22 04:50:08;;;;;;;10.52;5.00;;;7.30;99.90;;;;;;4694902;30;20716;-78
2023/02/22 04:52:35;;;;;;;10.98;4.68;;;7.20;99.90;;;;;;4673332;30;20562;-78
2023/02/22 04:55:03;;;;;;;10.90;5.28;;;7.20;99.90;;;;;;4673781;30;22367;-78
2023/02/22 04:57:31;;;;;;;12.57;5.20;;;7.20;99.90;;;;;;4667812;30;22563;-78
2023/02/22 04:59:59;;;;;;;9.05;4.45;;;7.20;99.90;;;;;;4684657;30;20057;-78
2023/02/22 05:02:26;;;;;;;10.98;4.43;;;7.10;99.90;;;;;;4667011;30;20048;-78
2023/02/22 05:04:53;;;;;;;8.10;4.03;;;7.00;99.90;;;;;;4687089;30;20184;-79
2023/02/22 05:07:21;;;;;;;8.30;4.60;;;7.10;99.90;;;;;;4659750;30;20068;-78
2023/02/22 05:09:48;;;;;;;12.18;4.75;;;7.00;99.90;;;;;;4711699;30;20049;-78
2023/02/22 05:12:15;;;;;;;9.75;4.53;;;7.10;99.90;;;;;;4670126;30;20049;-79
2023/02/22 05:14:43;;;;;;;9.75;4.60;;;7.00;99.90;;;;;;4662817;30;20061;-78
2023/02/22 05:17:10;;;;;;;8.10;4.13;;;7.00;99.90;;;;;;4683407;30;20091;-78
2023/02/22 05:19:37;;;;;;;10.43;5.05;;;7.00;99.90;;;;;;4711360;30;20551;-78
2023/02/22 05:22:04;;;;;;;11.50;4.22;;;7.00;99.90;;;;;;4652664;30;20064;-79
2023/02/22 05:24:32;;;;;;;9.02;4.40;;;7.00;99.90;;;;;;4668610;30;20096;-79
2023/02/22 05:26:59;;;;;;;10.88;4.82;;;7.00;99.90;;;;;;4657588;30;20118;-78
2023/02/22 05:29:26;;;;;;;8.13;4.55;;;7.00;99.90;;;;;;4683673;30;20057;-78
2023/02/22 05:31:53;;;;;;;10.20;4.20;;;7.00;99.90;;;;;;4671458;30;20181;-78
2023/02/22 05:34:21;;;;;;;9.73;4.43;;;6.90;99.90;;;;;;4669723;30;20143;-78
2023/02/22 05:36:48;;;;;;;9.10;4.10;;;6.90;99.90;;;;;;4683767;30;20213;-79
2023/02/22 05:39:15;;;;;;;11.82;5.25;;;6.90;99.90;;;;;;4670229;30;20062;-78
2023/02/22 05:41:43;;;;;;;14.38;6.13;;;6.90;99.90;;;;;;4692360;30;20060;-78
2023/02/22 05:44:10;;;;;;;13.20;6.07;;;6.80;99.90;;;;;;4656771;30;20750;-78
2023/02/22 05:46:37;;;;;;;15.25;6.55;;;6.80;99.90;;;;;;4673271;30;20112;-78
2023/02/22 05:49:04;;;;;;;13.85;7.20;;;6.80;99.90;;;;;;4704220;30;20111;-78
2023/02/22 05:51:32;;;;;;;13.80;6.75;;;6.10;99.90;;;;;;4684929;30;20052;-78
2023/02/22 05:53:59;;;;;;;15.52;7.10;;;5.60;99.90;;;;;;4686938;30;20057;-79
2023/02/22 05:56:29;;;;;;;13.15;6.60;;;6.70;99.90;;;;;;4686760;30;20136;-78
2023/02/22 05:58:57;;;;;;;15.20;6.97;;;6.50;99.90;;;;;;4676819;30;20477;-79
2023/02/22 06:01:25;;;;;;;17.15;6.53;;;6.60;99.90;;;;;;4690419;30;22444;-79
2023/02/22 06:03:52;;;;;;;12.40;6.20;;;6.60;99.90;;;;;;4691536;30;20071;-78
2023/02/22 06:06:20;;;;;;;12.73;6.38;;;6.60;99.90;;;;;;4684763;30;20602;-79
2023/02/22 06:08:49;;;;;;;14.65;6.72;;;6.60;99.90;;;;;;4682417;30;20123;-79
2023/02/22 06:11:18;;;;;;;18.02;6.85;;;6.50;99.90;;;;;;4683389;30;20068;-79
2023/02/22 06:13:50;;;;;;;11.95;6.57;;;6.60;99.90;;;;;;4685180;30;20786;-78
2023/02/22 06:16:20;;;;;;;14.80;7.10;;;6.50;99.90;;;;;;4672957;30;20497;-78
2023/02/22 06:18:47;;;;;;;15.50;7.47;;;6.60;99.90;;;;;;4684948;30;21308;-78
2023/02/22 06:21:16;;;;;;;22.27;10.48;;;6.60;99.90;;;;;;4686205;30;20184;-78
2023/02/22 06:23:44;;;;;;;25.95;10.82;;;6.60;99.90;;;;;;4668600;30;22518;-79
2023/02/22 06:26:11;;;;;;;26.77;12.15;;;6.70;99.90;;;;;;4675694;30;20545;-78
2023/02/22 06:28:38;;;;;;;34.70;13.88;;;6.70;99.90;;;;;;4675011;30;20915;-78
2023/02/22 06:31:05;;;;;;;33.47;14.15;;;6.70;99.90;;;;;;4686171;30;20493;-78
2023/02/22 06:33:32;;;;;;;35.38;13.93;;;6.80;99.90;;;;;;4679977;30;20967;-79
2023/02/22 06:36:00;;;;;;;35.10;14.48;;;6.90;99.90;;;;;;4682778;30;20452;-79
2023/02/22 06:38:27;;;;;;;39.88;16.63;;;6.90;99.90;;;;;;4684808;30;20056;-79
2023/02/22 06:40:54;;;;;;;33.30;14.52;;;7.00;99.90;;;;;;4673251;30;20192;-78
2023/02/22 06:43:23;;;;;;;39.88;15.98;;;7.40;99.90;;;;;;4678518;30;20072;-79
2023/02/22 06:45:51;;;;;;;36.60;15.45;;;7.10;99.90;;;;;;4672647;30;20061;-79
2023/02/22 06:48:18;;;;;;;36.80;15.48;;;7.10;99.90;;;;;;4674275;30;20135;-78
2023/02/22 06:50:46;;;;;;;33.67;14.95;;;7.20;99.90;;;;;;4694412;30;20057;-78
2023/02/22 06:53:13;;;;;;;37.13;15.13;;;7.30;99.90;;;;;;4685296;30;20048;-79
2023/02/22 06:55:40;;;;;;;35.45;13.65;;;7.20;99.90;;;;;;4663892;30;20056;-79
2023/02/22 06:58:08;;;;;;;24.48;11.80;;;7.30;99.90;;;;;;4655091;30;20622;-79
2023/02/22 07:00:37;;;;;;;24.25;11.77;;;7.40;99.90;;;;;;4682218;30;20056;-80
2023/02/22 07:03:04;;;;;;;23.58;10.95;;;7.40;99.90;;;;;;4690114;30;22455;-79
2023/02/22 07:05:32;;;;;;;25.60;12.13;;;7.70;99.90;;;;;;4690288;30;20061;-81
2023/02/22 07:08:06;;;;;;;;;;;7.60;99.90;;;;;;4668618;30;20053;-79
2023/02/22 07:10:35;;;;;;;25.00;11.18;;;7.70;99.90;;;;;;4684934;30;20086;-79
2023/02/22 07:13:05;;;;;;;28.02;11.70;;;7.70;99.90;;;;;;4694891;30;20057;-79
2023/02/22 07:15:34;;;;;;;23.55;12.20;;;7.00;99.90;;;;;;4676553;30;20087;-79
2023/02/22 07:18:02;;;;;;;26.10;12.32;;;8.00;99.90;;;;;;4671014;30;20057;-79
2023/02/22 07:20:30;;;;;;;23.30;9.77;;;8.10;99.90;;;;;;4658541;30;20068;-79
2023/02/22 07:22:58;;;;;;;16.75;8.85;;;7.90;99.90;;;;;;4676379;30;20068;-79
2023/02/22 07:25:26;;;;;;;18.13;9.60;;;8.20;99.90;;;;;;4687991;30;20065;-79
2023/02/22 07:27:54;;;;;;;19.95;9.20;;;8.20;99.90;;;;;;4673161;30;20072;-79
2023/02/22 07:30:26;;;;;;;22.08;9.77;;;8.30;99.90;;;;;;4679531;30;20064;-78
2023/02/22 07:32:54;;;;;;;21.40;9.32;;;8.40;99.90;;;;;;4684451;30;20183;-80
2023/02/22 07:35:26;;;;;;;23.83;10.50;;;8.60;99.90;;;;;;4675645;30;20057;-79
2023/02/22 07:37:55;;;;;;;;;;;8.60;99.90;;;;;;4675273;30;20922;-79
2023/02/22 07:40:24;;;;;;;29.05;12.80;;;8.50;99.90;;;;;;4676641;30;19973;-79
2023/02/22 07:43:01;;;;;;;32.88;15.13;;;8.40;99.90;;;;;;4676959;30;20180;-79
2023/02/22 07:45:31;;;;;;;31.80;15.90;;;8.40;99.90;;;;;;4672749;30;20902;-79
2023/02/22 07:48:00;;;;;;;34.17;17.00;;;8.40;99.90;;;;;;4655756;30;20994;-79
2023/02/22 07:50:31;;;;;;;31.58;16.00;;;8.40;99.90;;;;;;4668449;30;20057;-79
2023/02/22 07:53:03;;;;;;;29.80;15.13;;;8.50;99.90;;;;;;4677221;30;20060;-79
2023/02/22 07:55:31;;;;;;;;;;;8.60;99.90;;;;;;4677039;30;20064;-79
2023/02/22 07:58:02;;;;;;;30.05;13.50;;;8.60;99.90;;;;;;4683772;30;19996;-80
2023/02/22 08:00:38;;;;;;;28.92;12.85;;;8.80;99.90;;;;;;4669435;30;20072;-80
2023/02/22 08:03:15;;;;;;;29.25;12.75;;;8.70;99.90;;;;;;4666475;30;20604;-80
2023/02/22 08:05:50;;;;;;;24.30;12.48;;;8.70;99.90;;;;;;4664541;30;20173;-81
2023/02/22 08:08:18;;;;;;;22.35;12.48;;;8.70;99.90;;;;;;4673954;30;20482;-80
2023/02/22 08:10:46;;;;;;;26.50;13.57;;;8.80;99.90;;;;;;4693225;30;22981;-81
2023/02/22 08:13:14;;;;;;;24.48;11.65;;;8.90;99.90;;;;;;4667422;30;20198;-81
2023/02/22 08:15:45;;;;;;;21.45;10.55;;;8.90;99.90;;;;;;4675858;30;20601;-80
2023/02/22 08:18:16;;;;;;;20.10;10.07;;;9.00;99.90;;;;;;4664636;30;20060;-81
2023/02/22 08:20:45;;;;;;;14.95;8.38;;;9.10;99.90;;;;;;4661832;30;20900;-80
2023/02/22 08:23:14;;;;;;;16.27;8.27;;;9.00;99.90;;;;;;4678363;30;20060;-81
2023/02/22 08:25:42;;;;;;;23.25;9.52;;;9.00;99.90;;;;;;4675274;30;22472;-80
2023/02/22 08:28:14;;;;;;;15.77;8.20;;;9.10;99.90;;;;;;4685403;30;20068;-81
2023/02/22 08:30:42;;;;;;;12.93;7.28;;;9.10;99.90;;;;;;4687720;30;20063;-81
2023/02/22 08:33:17;;;;;;;14.52;6.78;;;9.20;99.90;;;;;;4685869;30;20065;-81
2023/02/22 08:35:48;;;;;;;15.13;8.25;;;9.30;99.90;;;;;;4682105;30;20516;-80
2023/02/22 08:38:26;;;;;;;12.88;7.07;;;9.20;99.90;;;;;;4709132;30;20450;-81
2023/02/22 08:40:53;;;;;;;14.93;6.72;;;9.30;99.90;;;;;;4680873;30;20061;-81
2023/02/22 08:43:22;;;;;;;14.88;7.95;;;9.30;99.90;;;;;;4687206;30;20071;-80
2023/02/22 08:45:50;;;;;;;17.55;8.00;;;9.40;99.90;;;;;;4690583;30;20095;-81
2023/02/22 08:48:19;;;;;;;16.08;7.13;;;9.50;99.90;;;;;;4691383;30;20107;-81
2023/02/22 08:50:46;;;;;;;12.77;6.18;;;9.60;99.90;;;;;;4665763;30;20068;-81
2023/02/22 08:53:16;;;;;;;14.45;8.35;;;9.50;99.90;;;;;;4677253;30;22410;-80
2023/02/22 08:55:43;;;;;;;14.07;7.03;;;9.60;99.90;;;;;;4692935;30;20100;-81
2023/02/22 08:58:13;;;;;;;13.70;6.68;;;9.70;99.90;;;;;;4656667;30;20061;-81
2023/02/22 09:00:48;;;;;;;14.77;7.00;;;9.70;99.90;;;;;;4679409;30;20168;-79
2023/02/22 09:03:16;;;;;;;13.00;6.43;;;9.80;99.90;;;;;;4668532;30;20061;-80
2023/02/22 09:05:46;;;;;;;12.13;5.97;;;9.80;99.90;;;;;;4694847;30;20590;-79
2023/02/22 09:08:15;;;;;;;11.13;6.30;;;9.90;99.90;;;;;;4690236;30;20063;-79
2023/02/22 09:10:44;;;;;;;10.85;5.93;;;9.10;99.90;;;;;;4669234;30;20155;-80
2023/02/22 09:13:11;;;;;;;12.65;7.45;;;10.00;99.90;;;;;;4696276;30;20081;-79
2023/02/22 09:15:42;;;;;;;14.50;6.75;;;10.00;99.90;;;;;;4698793;30;20575;-79
2023/02/22 09:18:13;;;;;;;11.95;6.38;;;10.50;99.90;;;;;;4688712;30;20090;-80
2023/02/22 09:20:40;;;;;;;15.88;7.38;;;10.40;99.90;;;;;;4700493;30;20147;-81
2023/02/22 09:23:09;;;;;;;12.68;6.63;;;10.20;99.90;;;;;;4694359;30;20219;-79
2023/02/22 09:25:39;;;;;;;9.23;5.10;;;10.10;99.90;;;;;;4695567;30;20079;-79
2023/02/22 09:28:08;;;;;;;10.90;5.70;;;10.50;99.90;;;;;;4673249;30;20063;-79
2023/02/22 09:30:36;;;;;;;14.25;6.20;;;10.40;99.90;;;;;;4694764;30;20584;-79
2023/02/22 09:33:10;;;;;;;7.07;4.50;;;10.50;99.90;;;;;;4698619;30;20052;-79
2023/02/22 09:35:41;;;;;;;10.77;5.57;;;10.70;99.90;;;;;;4672640;30;20111;-80
2023/02/22 09:38:10;;;;;;;12.10;5.35;;;10.60;99.90;;;;;;4678602;30;20063;-80
2023/02/22 09:40:44;;;;;;;9.80;4.70;;;10.80;99.90;;;;;;4694514;30;20115;-81
2023/02/22 09:43:37;;;;;;;8.52;4.75;;;10.90;99.90;;;;;;4694349;30;20065;-79
2023/02/22 09:46:17;;;;;;;8.60;4.40;;;10.70;99.90;;;;;;4679532;30;20195;-80
2023/02/22 09:49:04;;;;;;;9.25;4.25;;;10.70;99.90;;;;;;4720999;30;20286;-80
2023/02/22 09:51:48;;;;;;;9.13;4.82;;;11.00;99.90;;;;;;4703474;30;20064;-80
2023/02/22 09:54:33;;;;;;;7.72;4.45;;;11.10;99.90;;;;;;4694988;30;20113;-80
2023/02/22 09:57:07;;;;;;;11.43;5.53;;;11.20;99.80;;;;;;4678521;30;20053;-79
2023/02/22 09:59:59;;;;;;;10.53;5.67;;;11.30;99.80;;;;;;4691395;30;20072;-79
2023/02/22 10:02:59;;;;;;;8.90;5.00;;;11.50;99.70;;;;;;4680565;30;20144;-78
2023/02/22 10:05:33;;;;;;;11.27;6.72;;;11.50;98.90;;;;;;4679737;30;20053;-78
2023/02/22 10:08:09;;;;;;;11.35;5.78;;;11.50;98.70;;;;;;4691655;30;20568;-78
2023/02/22 10:10:40;;;;;;;10.95;5.90;;;11.30;98.50;;;;;;4662569;30;20056;-79
2023/02/22 10:13:33;;;;;;;10.10;4.88;;;11.30;98.10;;;;;;4679077;30;20057;-79
2023/02/22 10:16:35;;;;;;;10.38;4.85;;;11.50;98.00;;;;;;4677087;30;20061;-79
2023/02/22 10:19:22;;;;;;;8.43;3.97;;;11.50;98.10;;;;;;4685045;30;20206;-78
2023/02/22 10:22:28;;;;;;;9.95;4.88;;;11.50;98.20;;;;;;4695617;30;20148;-79
2023/02/22 10:25:06;;;;;;;11.48;6.13;;;11.50;98.00;;;;;;4679129;30;20073;-80
2023/02/22 10:27:41;;;;;;;8.48;5.13;;;11.40;98.00;;;;;;4674130;30;20119;-79
2023/02/22 10:30:22;;;;;;;8.68;4.13;;;11.50;98.20;;;;;;4690962;30;23206;-81
2023/02/22 10:33:02;;;;;;;;;;;11.60;97.50;;;;;;4697282;30;20080;-78
2023/02/22 10:35:34;;;;;;;8.15;4.25;;;11.50;97.30;;;;;;4690835;30;20045;-79
2023/02/22 10:38:12;;;;;;;7.53;4.40;;;11.50;96.90;;;;;;4660211;30;20590;-78
2023/02/22 10:40:42;;;;;;;10.48;5.35;;;11.80;96.40;;;;;;4681991;30;20313;-79
2023/02/22 10:43:10;;;;;;;9.43;4.50;;;11.80;96.60;;;;;;4687858;30;20518;-79
2023/02/22 10:45:37;;;;;;;7.68;4.28;;;11.90;96.30;;;;;;4702291;30;20061;-79
2023/02/22 10:48:18;;;;;;;7.05;3.92;;;11.90;96.70;;;;;;4691947;30;20059;-78
2023/02/22 10:50:49;;;;;;;9.43;5.22;;;11.90;95.90;;;;;;4691581;30;20056;-79
2023/02/22 10:53:16;;;;;;;9.13;4.47;;;11.90;96.00;;;;;;4701550;30;20063;-78
2023/02/22 10:56:12;;;;;;;11.52;4.93;;;12.10;95.80;;;;;;4675602;30;20057;-76
2023/02/22 10:58:58;;;;;;;7.22;4.30;;;12.00;96.00;;;;;;4692732;30;20064;-79
2023/02/22 11:01:31;;;;;;;8.32;4.38;;;11.90;95.50;;;;;;4703205;30;20067;-79
2023/02/22 11:04:15;;;;;;;13.73;5.00;;;12.00;95.10;;;;;;4678840;30;20061;-77
2023/02/22 11:06:47;;;;;;;6.70;4.05;;;12.10;95.50;;;;;;4676630;30;20119;-79
2023/02/22 11:09:21;;;;;;;8.82;4.72;;;12.20;95.50;;;;;;4691981;30;20412;-79
2023/02/22 11:12:06;;;;;;;8.00;4.45;;;12.10;95.40;;;;;;4680871;30;20061;-80
2023/02/22 11:14:34;;;;;;;8.32;4.75;;;12.00;95.10;;;;;;4673683;30;20147;-79
2023/02/22 11:17:07;;;;;;;7.20;3.95;;;12.10;95.10;;;;;;4697290;30;20528;-79
2023/02/22 11:19:37;;;;;;;7.70;3.47;;;11.90;94.90;;;;;;4663556;30;20524;-79
2023/02/22 11:22:04;;;;;;;7.80;4.53;;;11.90;94.90;;;;;;4705851;30;20064;-79
2023/02/22 11:24:32;;;;;;;6.90;3.80;;;11.90;95.00;;;;;;4693814;30;20048;-78
2023/02/22 11:27:38;;;;;;;6.75;3.72;;;11.90;95.20;;;;;;4674562;30;20270;-79
2023/02/22 11:30:19;;;;;;;7.13;4.43;;;11.90;94.50;;;;;;4691607;30;21058;-79
2023/02/22 11:32:59;;;;;;;7.63;4.00;;;11.50;94.50;;;;;;4650489;30;20060;-77
2023/02/22 11:35:49;;;;;;;7.38;3.88;;;12.10;94.60;;;;;;4687778;30;20500;-79
2023/02/22 11:38:23;;;;;;;7.75;4.00;;;12.00;95.00;;;;;;4679597;30;21441;-79
2023/02/22 11:41:29;;;;;;;8.05;4.20;;;12.20;94.50;;;;;;4650147;30;20547;-79
2023/02/22 11:44:22;;;;;;;75.70;29.48;;;11.50;94.30;;;;;;4647380;30;20059;-79
2023/02/22 11:46:54;;;;;;;272.52;100.85;;;12.30;93.60;;;;;;4676413;30;20544;-79
2023/02/22 11:49:33;;;;;;;37.57;17.53;;;11.50;92.90;;;;;;4694468;30;20060;-79
2023/02/22 11:52:16;;;;;;;10.43;5.97;;;12.30;93.50;;;;;;4650005;30;20226;-78
2023/02/22 11:55:08;;;;;;;11.27;6.57;;;12.20;93.00;;;;;;4672510;30;20079;-80
2023/02/22 11:57:49;;;;;;;9.35;5.28;;;12.40;93.20;;;;;;4654644;30;20068;-79
2023/02/22 12:00:54;;;;;;;9.68;4.97;;;13.40;93.40;;;;;;4671369;30;20928;-79
2023/02/22 12:03:22;;;;;;;9.48;4.88;;;12.60;93.10;;;;;;4680355;30;20053;-79
2023/02/22 12:06:08;;;;;;;10.23;5.13;;;12.60;93.10;;;;;;4663075;30;20057;-78
2023/02/22 12:09:32;;;;;;;9.80;4.95;;;12.60;92.70;;;;;;4654288;30;20501;-79
2023/02/22 12:12:32;;;;;;;8.02;4.32;;;12.60;92.50;;;;;;4663437;30;20064;-79
2023/02/22 12:15:32;;;;;;;7.65;4.72;;;12.80;92.70;;;;;;4693251;30;20057;-79
2023/02/22 12:18:13;;;;;;;8.23;5.00;;;12.60;92.60;;;;;;4635561;30;22402;-79
2023/02/22 12:20:54;;;;;;;9.85;5.05;;;12.50;92.90;;;;;;4659336;30;20053;-79
2023/02/22 12:23:28;;;;;;;8.65;5.03;;;12.50;93.10;;;;;;4662509;30;20072;-79
2023/02/22 12:26:35;;;;;;;9.50;5.05;;;12.40;92.50;;;;;;4684457;30;20072;-79
2023/02/22 12:29:26;;;;;;;11.38;5.20;;;11.70;92.90;;;;;;4688465;30;20425;-79
2023/02/22 12:32:03;;;;;;;10.75;5.85;;;12.40;93.20;;;;;;4689908;30;20057;-79
2023/02/22 12:34:36;;;;;;;11.80;6.25;;;12.40;93.30;;;;;;4688439;30;22254;-77
2023/02/22 12:37:08;;;;;;;;;;;12.40;93.40;;;;;;4672538;30;20429;-79
2023/02/22 12:39:54;;;;;;;11.43;5.68;;;12.40;93.50;;;;;;4702936;30;20323;-76
2023/02/22 12:42:54;;;;;;;12.10;6.30;;;12.30;93.90;;;;;;4689191;30;20065;-79
2023/02/22 12:45:35;;;;;;;13.23;6.95;;;12.40;94.20;;;;;;4689826;30;20075;-78
2023/02/22 12:48:25;;;;;;;11.85;6.57;;;12.40;94.30;;;;;;4663106;30;20056;-77
2023/02/22 12:51:01;;;;;;;11.48;6.65;;;12.60;94.50;;;;;;4693198;30;20056;-79
2023/02/22 12:53:35;;;;;;;11.73;6.72;;;12.50;94.00;;;;;;4675249;30;20065;-77
2023/02/22 12:56:26;;;;;;;12.93;7.03;;;12.40;93.80;;;;;;4682954;30;20069;-77
2023/02/22 12:59:07;;;;;;;11.82;6.88;;;11.70;94.00;;;;;;4690551;30;20060;-79
2023/02/22 13:01:42;;;;;;;12.10;6.97;;;12.40;94.20;;;;;;4673869;30;20553;-78
2023/02/22 13:04:10;;;;;;;13.93;7.40;;;12.30;94.20;;;;;;4685800;30;20218;-79
2023/02/22 13:07:08;;;;;;;12.32;6.47;;;12.30;94.60;;;;;;4675643;30;20905;-79
2023/02/22 13:09:58;;;;;;;11.38;6.88;;;12.30;94.50;;;;;;4689238;30;20650;-80
2023/02/22 13:12:28;;;;;;;13.95;6.53;;;12.30;94.50;;;;;;4676192;30;20053;-78
2023/02/22 13:15:16;;;;;;;14.35;7.80;;;12.20;94.50;;;;;;4680197;30;20064;-79
2023/02/22 13:18:20;;;;;;;15.50;7.53;;;12.30;94.50;;;;;;4659736;30;22457;-79
2023/02/22 13:21:05;;;;;;;12.15;7.18;;;12.20;94.70;;;;;;4693855;30;20440;-79
2023/02/22 13:23:54;;;;;;;11.40;6.47;;;12.20;94.50;;;;;;4675246;30;20553;-78